Terminal Aerodrome Forecast
Issued by NWS

Home | Current Version | Previous Version | Text Only | Print | Product List | Glossary On
Versions: 1 2 3 4 5 6 7 8 9 10 11 12 13 14 15 16 17 18 19 20 21 22 23 24 25 26
295
FTUS43 KSGF 170522
TAFJLN
TAF
KJLN 170522Z 1706/1806 18010KT P6SM -SHRA SCT060 BKN150
     FM170800 21006KT P6SM BKN080
     FM171000 23009KT P6SM SCT015 BKN040
      TEMPO 1710/1713 BKN015
     FM171300 26008KT P6SM FEW010
     FM180100 28004KT P6SM SKC=

USA.gov is the U.S. government's official web portal to all federal, state and local government web resources and services.